createdAt,value
2022-12-02T00:02:23.579Z,10.30
2022-12-02T00:05:00.308Z,10.30
2022-12-02T00:07:28.669Z,10.30
2022-12-02T00:09:56.843Z,10.30
2022-12-02T00:12:27.790Z,10.30
2022-12-02T00:14:59.192Z,10.30
2022-12-02T00:17:27.837Z,10.30
2022-12-02T00:19:56.445Z,10.30
2022-12-02T00:22:24.656Z,10.30
2022-12-02T00:24:53.187Z,10.30
2022-12-02T00:27:21.850Z,10.30
2022-12-02T00:29:52.266Z,10.30
2022-12-02T00:32:20.506Z,10.30
2022-12-02T00:34:48.937Z,10.30
2022-12-02T00:37:17.304Z,10.30
2022-12-02T00:39:45.491Z,10.30
2022-12-02T00:42:13.814Z,10.30
2022-12-02T00:45:14.051Z,10.30
2022-12-02T00:47:43.728Z,10.30
2022-12-02T00:50:12.600Z,10.30
2022-12-02T00:52:40.988Z,10.30
2022-12-02T00:55:10.306Z,10.30
2022-12-02T00:57:38.770Z,10.30
2022-12-02T01:00:09.719Z,10.30
2022-12-02T01:02:38.079Z,10.30
2022-12-02T01:05:09.207Z,10.20
2022-12-02T01:07:39.320Z,10.20
2022-12-02T01:10:09.014Z,10.20
2022-12-02T01:12:37.244Z,10.20
2022-12-02T01:15:06.782Z,10.20
2022-12-02T01:17:35.101Z,10.20
2022-12-02T01:20:03.337Z,10.20
2022-12-02T01:22:32.902Z,10.20
2022-12-02T01:25:01.147Z,10.20
2022-12-02T01:27:29.363Z,10.20
2022-12-02T01:29:57.607Z,10.20
2022-12-02T01:32:25.932Z,10.20
2022-12-02T01:34:54.272Z,10.20
2022-12-02T01:37:22.546Z,10.20
2022-12-02T01:39:52.154Z,10.20
2022-12-02T01:42:20.534Z,10.20
2022-12-02T01:44:49.177Z,10.20
2022-12-02T01:47:17.508Z,10.20
2022-12-02T01:49:45.815Z,10.10
2022-12-02T01:52:14.203Z,10.20
2022-12-02T01:54:42.398Z,10.20
2022-12-02T01:57:15.401Z,10.20
2022-12-02T01:59:45.114Z,10.10
2022-12-02T02:02:27.337Z,10.20
2022-12-02T02:04:59.144Z,10.20
2022-12-02T02:07:29.268Z,10.20
2022-12-02T02:09:58.045Z,10.20
2022-12-02T02:12:28.177Z,10.20
2022-12-02T02:14:56.563Z,10.30
2022-12-02T02:17:25.184Z,10.30
2022-12-02T02:19:53.905Z,10.20
2022-12-02T02:22:26.917Z,10.20
2022-12-02T02:24:56.614Z,10.20
2022-12-02T02:27:25.136Z,10.20
2022-12-02T02:29:54.138Z,10.20
2022-12-02T02:32:23.456Z,10.20
2022-12-02T02:34:52.015Z,10.20
2022-12-02T02:37:20.640Z,10.20
2022-12-02T02:39:49.197Z,10.20
2022-12-02T02:42:19.297Z,10.30
2022-12-02T02:44:48.202Z,10.20
2022-12-02T02:47:17.381Z,10.20
2022-12-02T02:49:46.000Z,10.20
2022-12-02T02:52:14.452Z,10.20
2022-12-02T02:54:43.893Z,10.20
2022-12-02T02:57:12.455Z,10.20
2022-12-02T02:59:43.585Z,10.20
2022-12-02T03:02:14.833Z,10.20
2022-12-02T03:04:44.761Z,10.20
2022-12-02T03:07:14.816Z,10.20
2022-12-02T03:09:43.393Z,10.20
2022-12-02T03:12:12.244Z,10.20
2022-12-02T03:14:42.002Z,10.20
2022-12-02T03:17:10.474Z,10.20
2022-12-02T03:19:39.799Z,10.20
2022-12-02T03:22:08.303Z,10.20
2022-12-02T03:24:37.434Z,10.20
2022-12-02T03:27:06.900Z,10.30
2022-12-02T03:29:35.387Z,10.20
2022-12-02T03:32:05.490Z,10.20
2022-12-02T03:34:34.412Z,10.20
2022-12-02T03:37:02.613Z,10.20
2022-12-02T03:39:30.919Z,10.30
2022-12-02T03:41:59.211Z,10.30
2022-12-02T03:44:27.485Z,10.30
2022-12-02T03:46:55.701Z,10.20
2022-12-02T03:49:25.785Z,10.20
2022-12-02T03:51:54.494Z,10.20
2022-12-02T03:54:22.856Z,10.20
2022-12-02T03:56:51.011Z,10.20
2022-12-02T03:59:22.081Z,10.20
2022-12-02T04:01:50.659Z,10.20
2022-12-02T04:04:18.933Z,10.20
2022-12-02T04:06:48.537Z,10.20
2022-12-02T04:09:16.866Z,10.20
2022-12-02T04:11:45.217Z,10.20
2022-12-02T04:14:13.563Z,10.20
2022-12-02T04:16:41.769Z,10.20
2022-12-02T04:19:10.016Z,10.20
2022-12-02T04:21:38.291Z,10.30
2022-12-02T04:24:08.553Z,10.20
2022-12-02T04:26:40.456Z,10.20
2022-12-02T04:29:11.841Z,10.20
2022-12-02T04:31:40.009Z,10.30
2022-12-02T04:34:08.280Z,10.20
2022-12-02T04:36:36.511Z,10.20
2022-12-02T04:39:05.195Z,10.20
2022-12-02T04:41:34.877Z,10.20
2022-12-02T04:44:03.767Z,10.20
2022-12-02T04:46:31.987Z,10.20
2022-12-02T04:49:00.224Z,10.20
2022-12-02T04:51:28.471Z,10.10
2022-12-02T04:53:56.581Z,10.10
2022-12-02T04:56:24.823Z,10.10
2022-12-02T04:58:54.362Z,10.10
2022-12-02T05:01:22.594Z,10.10
2022-12-02T05:03:50.925Z,10.20
2022-12-02T05:06:19.109Z,10.20
2022-12-02T05:08:47.274Z,10.20
2022-12-02T05:11:15.523Z,10.20
2022-12-02T05:13:43.691Z,10.20
2022-12-02T05:16:13.348Z,10.20
2022-12-02T05:18:41.818Z,10.20
2022-12-02T05:21:10.107Z,10.20
2022-12-02T05:23:38.233Z,10.20
2022-12-02T05:26:06.612Z,10.20
2022-12-02T05:28:34.850Z,10.20
2022-12-02T05:31:03.239Z,10.20
2022-12-02T05:33:32.940Z,10.20
2022-12-02T05:36:01.162Z,10.30
2022-12-02T05:38:29.322Z,10.30
2022-12-02T05:40:58.128Z,10.30
2022-12-02T05:43:27.798Z,10.30
2022-12-02T05:46:00.270Z,10.30
2022-12-02T05:48:38.076Z,10.30
2022-12-02T05:51:11.052Z,10.40
2022-12-02T05:53:41.329Z,10.30
2022-12-02T05:56:14.914Z,10.30
2022-12-02T05:58:43.855Z,10.30
2022-12-02T06:01:22.098Z,10.30
2022-12-02T06:03:52.229Z,10.30
2022-12-02T06:06:24.923Z,10.30
2022-12-02T06:08:55.010Z,10.20
2022-12-02T06:11:29.163Z,10.20
2022-12-02T06:13:59.420Z,10.20
2022-12-02T06:16:30.948Z,10.20
2022-12-02T06:19:01.901Z,10.20
2022-12-02T06:21:30.232Z,10.20
2022-12-02T06:23:59.881Z,10.20
2022-12-02T06:26:28.122Z,10.30
2022-12-02T06:29:00.393Z,10.20
2022-12-02T06:31:35.361Z,10.20
2022-12-02T06:34:22.072Z,10.20
2022-12-02T06:36:50.412Z,10.20
2022-12-02T06:39:24.125Z,10.20
2022-12-02T06:41:54.859Z,10.20
2022-12-02T06:44:42.149Z,10.20
2022-12-02T06:47:53.190Z,10.10
2022-12-02T06:50:36.324Z,10.10
2022-12-02T06:53:20.660Z,10.20
2022-12-02T06:55:50.258Z,10.20
2022-12-02T06:58:34.584Z,10.20
2022-12-02T07:01:23.355Z,10.30
2022-12-02T07:04:22.837Z,10.30
2022-12-02T07:06:55.839Z,10.30
2022-12-02T07:09:33.337Z,10.30
2022-12-02T07:12:01.589Z,10.30
2022-12-02T07:14:35.229Z,10.20
2022-12-02T07:17:07.581Z,10.20
2022-12-02T07:19:40.115Z,10.30
2022-12-02T07:22:19.585Z,10.30
2022-12-02T07:24:53.453Z,10.30
2022-12-02T07:27:24.314Z,10.90
2022-12-02T07:29:53.657Z,10.30
2022-12-02T07:32:21.781Z,10.30
2022-12-02T07:34:50.616Z,10.30
2022-12-02T07:37:21.067Z,10.30
2022-12-02T07:39:49.324Z,10.20
2022-12-02T07:42:17.568Z,10.30
2022-12-02T07:44:45.744Z,10.30
2022-12-02T07:47:13.906Z,10.30
2022-12-02T07:49:42.353Z,10.20
2022-12-02T07:52:11.316Z,10.20
2022-12-02T07:54:40.900Z,10.20
2022-12-02T07:57:09.238Z,10.20
2022-12-02T07:59:37.443Z,10.20
2022-12-02T08:02:05.590Z,10.20
2022-12-02T08:04:33.886Z,10.20
2022-12-02T08:07:02.204Z,10.20
2022-12-02T08:09:30.424Z,10.20
2022-12-02T08:12:00.216Z,10.20
2022-12-02T08:14:28.425Z,10.20
2022-12-02T08:16:56.736Z,10.10
2022-12-02T08:19:25.050Z,10.10
2022-12-02T08:21:53.792Z,10.10
2022-12-02T08:24:22.049Z,10.10
2022-12-02T08:26:50.364Z,10.10
2022-12-02T08:29:19.956Z,10.20
2022-12-02T08:31:48.195Z,10.20
2022-12-02T08:34:16.695Z,10.20
2022-12-02T08:36:44.967Z,10.20
2022-12-02T08:39:13.300Z,10.20
2022-12-02T08:41:41.596Z,10.20
2022-12-02T08:44:09.903Z,10.20
2022-12-02T08:46:39.545Z,10.20
2022-12-02T08:49:07.926Z,10.20
2022-12-02T08:51:36.736Z,10.20
2022-12-02T08:54:05.298Z,10.20
2022-12-02T08:56:33.663Z,10.20
2022-12-02T08:59:01.918Z,10.20
2022-12-02T09:01:30.374Z,10.20
2022-12-02T09:04:00.189Z,10.30
2022-12-02T09:06:32.973Z,10.30
2022-12-02T09:09:04.202Z,10.30
2022-12-02T09:11:32.830Z,10.30
2022-12-02T09:14:01.164Z,10.30
2022-12-02T09:16:29.546Z,10.30
2022-12-02T09:18:59.144Z,10.30
2022-12-02T09:21:27.504Z,10.40
2022-12-02T09:23:55.657Z,10.30
2022-12-02T09:26:23.844Z,10.30
2022-12-02T09:28:52.618Z,10.40
2022-12-02T09:31:20.846Z,10.30
2022-12-02T09:33:49.249Z,10.30
2022-12-02T09:36:18.916Z,10.30
2022-12-02T09:38:47.203Z,10.40
2022-12-02T09:41:15.395Z,10.30
2022-12-02T09:43:43.955Z,10.40
2022-12-02T09:46:12.423Z,10.40
2022-12-02T09:48:40.773Z,10.40
2022-12-02T09:51:10.869Z,10.50
2022-12-02T09:53:42.261Z,10.40
2022-12-02T09:56:16.170Z,10.40
2022-12-02T09:58:44.831Z,10.40
2022-12-02T10:01:14.611Z,10.50
2022-12-02T10:03:44.955Z,10.50
2022-12-02T10:06:18.967Z,10.50
2022-12-02T10:08:48.745Z,10.50
2022-12-02T10:11:22.609Z,10.50
2022-12-02T10:13:51.958Z,10.50
2022-12-02T10:16:20.544Z,10.50
2022-12-02T10:18:49.441Z,10.50
2022-12-02T10:21:17.707Z,10.50
2022-12-02T10:23:59.210Z,10.50
2022-12-02T10:26:28.522Z,10.50
2022-12-02T10:29:05.829Z,10.60
2022-12-02T10:31:34.556Z,10.60
2022-12-02T10:34:04.623Z,10.60
2022-12-02T10:36:34.759Z,10.60
2022-12-02T10:39:25.021Z,10.60
2022-12-02T10:42:13.866Z,10.50
2022-12-02T10:44:43.738Z,10.60
2022-12-02T10:47:17.436Z,10.60
2022-12-02T10:49:51.431Z,10.60
2022-12-02T10:52:23.141Z,10.60
2022-12-02T10:54:54.435Z,10.60
2022-12-02T10:57:25.863Z,10.60
2022-12-02T10:59:54.802Z,10.60
2022-12-02T11:02:26.086Z,10.60
2022-12-02T11:04:54.881Z,10.60
2022-12-02T11:07:25.106Z,10.60
2022-12-02T11:09:56.511Z,10.60
2022-12-02T11:12:34.467Z,10.60
2022-12-02T11:15:06.440Z,10.60
2022-12-02T11:17:50.717Z,10.60
2022-12-02T11:20:41.788Z,10.60
2022-12-02T11:23:25.211Z,10.70
2022-12-02T11:26:04.275Z,10.60
2022-12-02T11:29:16.447Z,10.60
2022-12-02T11:32:01.090Z,10.60
2022-12-02T11:35:15.110Z,10.70
2022-12-02T11:37:38.449Z,10.60
2022-12-02T11:40:23.819Z,10.60
2022-12-02T11:42:53.778Z,10.50
2022-12-02T11:45:56.231Z,10.60
2022-12-02T11:48:24.484Z,10.60
2022-12-02T11:50:52.805Z,10.60
2022-12-02T11:53:23.449Z,10.60
2022-12-02T11:55:53.496Z,10.60
2022-12-02T11:58:27.821Z,10.60
2022-12-02T12:01:04.091Z,10.60
2022-12-02T12:03:33.551Z,10.60
2022-12-02T12:06:10.283Z,10.60
2022-12-02T12:08:39.945Z,10.60
2022-12-02T12:11:20.278Z,10.50
2022-12-02T12:14:04.735Z,10.60
2022-12-02T12:16:34.180Z,10.60
2022-12-02T12:19:04.764Z,10.60
2022-12-02T12:21:45.338Z,10.60
2022-12-02T12:24:33.294Z,10.60
2022-12-02T12:27:33.745Z,10.60
2022-12-02T12:30:03.572Z,10.50
2022-12-02T12:32:31.895Z,10.50
2022-12-02T12:35:00.229Z,10.60
2022-12-02T12:37:28.389Z,10.50
2022-12-02T12:39:56.676Z,10.50
2022-12-02T12:42:24.966Z,10.50
2022-12-02T12:44:53.626Z,10.50
2022-12-02T12:47:23.500Z,10.50
2022-12-02T12:49:51.853Z,10.60
2022-12-02T12:52:20.077Z,10.50
2022-12-02T12:54:51.096Z,10.50
2022-12-02T12:57:20.764Z,10.50
2022-12-02T12:59:49.437Z,10.50
2022-12-02T13:02:18.053Z,10.50
2022-12-02T13:04:47.765Z,10.50
2022-12-02T13:07:16.077Z,10.50
2022-12-02T13:09:44.310Z,10.50
2022-12-02T13:12:13.324Z,10.50
2022-12-02T13:14:41.725Z,10.50
2022-12-02T13:17:10.077Z,10.50
2022-12-02T13:19:38.312Z,10.50
2022-12-02T13:22:07.894Z,10.50
2022-12-02T13:24:42.663Z,10.50
2022-12-02T13:27:11.494Z,10.50
2022-12-02T13:29:39.733Z,10.50
2022-12-02T13:32:08.032Z,10.50
2022-12-02T13:34:36.241Z,10.50
2022-12-02T13:37:04.657Z,10.40
2022-12-02T13:39:34.234Z,10.40
2022-12-02T13:42:02.403Z,10.40
2022-12-02T13:44:30.895Z,10.40
2022-12-02T13:46:59.368Z,10.40
2022-12-02T13:49:27.865Z,10.40
2022-12-02T13:51:57.349Z,10.30
2022-12-02T13:54:26.437Z,10.30
2022-12-02T13:56:56.066Z,10.40
2022-12-02T13:59:24.504Z,10.40
2022-12-02T14:01:52.964Z,10.40
2022-12-02T14:04:21.132Z,10.40
2022-12-02T14:06:49.351Z,10.40
2022-12-02T14:09:17.661Z,10.40
2022-12-02T14:11:46.020Z,10.40
2022-12-02T14:14:15.589Z,10.50
2022-12-02T14:16:43.962Z,10.40
2022-12-02T14:19:12.176Z,10.50
2022-12-02T14:21:40.408Z,10.50
2022-12-02T14:24:09.134Z,10.40
2022-12-02T14:26:38.497Z,10.40
2022-12-02T14:29:06.672Z,10.40
2022-12-02T14:31:36.327Z,10.30
2022-12-02T14:34:13.582Z,10.30
2022-12-02T14:36:43.077Z,10.30
2022-12-02T14:39:12.138Z,10.30
2022-12-02T14:41:40.471Z,10.30
2022-12-02T14:44:08.813Z,10.30
2022-12-02T14:46:39.130Z,10.30
2022-12-02T14:49:37.941Z,10.40
2022-12-02T14:51:55.893Z,10.40
2022-12-02T14:54:24.140Z,10.40
2022-12-02T14:56:52.349Z,10.30
2022-12-02T14:59:20.769Z,10.30
2022-12-02T15:01:50.437Z,10.30
2022-12-02T15:04:18.774Z,10.30
2022-12-02T15:06:46.967Z,10.30
2022-12-02T15:09:15.225Z,10.30
2022-12-02T15:11:43.392Z,10.30
2022-12-02T15:14:11.592Z,10.30
2022-12-02T15:16:39.880Z,10.20
2022-12-02T15:19:09.520Z,10.20
2022-12-02T15:21:37.713Z,10.20
2022-12-02T15:24:06.584Z,10.20
2022-12-02T15:26:34.998Z,10.20
2022-12-02T15:29:03.322Z,10.30
2022-12-02T15:31:31.619Z,10.40
2022-12-02T15:33:59.954Z,10.40
2022-12-02T15:36:29.558Z,10.40
2022-12-02T15:38:57.816Z,10.40
2022-12-02T15:41:25.971Z,10.30
2022-12-02T15:43:54.498Z,10.30
2022-12-02T15:46:23.959Z,10.30
2022-12-02T15:48:52.772Z,10.20
2022-12-02T15:51:21.377Z,10.30
2022-12-02T15:53:51.088Z,10.20
2022-12-02T15:56:19.259Z,10.30
2022-12-02T15:58:50.282Z,10.30
2022-12-02T16:01:18.940Z,10.30
2022-12-02T16:03:47.411Z,10.30
2022-12-02T16:06:15.570Z,10.30
2022-12-02T16:08:44.016Z,10.30
2022-12-02T16:11:13.690Z,10.20
2022-12-02T16:13:41.901Z,10.20
2022-12-02T16:16:10.897Z,10.30
2022-12-02T16:18:39.184Z,10.30
2022-12-02T16:21:07.675Z,10.30
2022-12-02T16:23:35.919Z,10.30
2022-12-02T16:26:04.148Z,10.30
2022-12-02T16:28:33.763Z,10.30
2022-12-02T16:31:02.159Z,10.30
2022-12-02T16:33:30.483Z,10.30
2022-12-02T16:35:58.708Z,10.30
2022-12-02T16:38:26.902Z,10.30
2022-12-02T16:40:55.201Z,10.30
2022-12-02T16:43:23.402Z,10.30
2022-12-02T16:45:53.050Z,10.40
2022-12-02T16:48:21.317Z,10.30
2022-12-02T16:50:55.534Z,10.30
2022-12-02T16:53:24.459Z,10.30
2022-12-02T16:55:52.737Z,10.20
2022-12-02T16:58:20.949Z,10.20
2022-12-02T17:00:49.222Z,10.20
2022-12-02T17:03:18.968Z,10.20
2022-12-02T17:05:47.192Z,10.20
2022-12-02T17:08:15.523Z,10.20
2022-12-02T17:10:43.837Z,10.20
2022-12-02T17:13:12.108Z,10.20
2022-12-02T17:15:40.323Z,10.30
2022-12-02T17:18:08.828Z,10.30
2022-12-02T17:20:38.422Z,10.40
2022-12-02T17:23:06.719Z,10.40
2022-12-02T17:25:36.233Z,10.30
2022-12-02T17:28:04.951Z,10.30
2022-12-02T17:30:33.204Z,10.30
2022-12-02T17:33:02.991Z,10.50
2022-12-02T17:35:31.219Z,10.70
2022-12-02T17:38:00.831Z,10.80
2022-12-02T17:40:29.051Z,10.90
2022-12-02T17:42:57.234Z,11.00
2022-12-02T17:45:25.507Z,11.10
2022-12-02T17:47:53.758Z,11.10
2022-12-02T17:50:22.038Z,11.20
2022-12-02T17:52:50.225Z,11.20
2022-12-02T17:55:20.599Z,11.20
2022-12-02T17:57:48.883Z,11.10
2022-12-02T18:00:17.951Z,11.10
2022-12-02T18:02:46.393Z,11.10
2022-12-02T18:05:14.620Z,11.20
2022-12-02T18:07:42.931Z,11.10
2022-12-02T18:10:11.901Z,11.20
2022-12-02T18:12:41.603Z,11.10
2022-12-02T18:15:12.949Z,11.10
2022-12-02T18:17:41.239Z,10.90
2022-12-02T18:20:11.175Z,10.80
2022-12-02T18:22:40.018Z,10.70
2022-12-02T18:25:08.923Z,10.50
2022-12-02T18:27:37.228Z,10.50
2022-12-02T18:30:12.325Z,10.50
2022-12-02T18:32:43.991Z,10.60
2022-12-02T18:35:12.287Z,10.60
2022-12-02T18:37:40.563Z,10.60
2022-12-02T18:40:10.011Z,10.60
2022-12-02T18:42:38.350Z,10.60
2022-12-02T18:45:09.745Z,10.60
2022-12-02T18:47:38.164Z,10.50
2022-12-02T18:50:07.798Z,10.60
2022-12-02T18:52:36.139Z,10.60
2022-12-02T18:55:04.704Z,10.50
2022-12-02T18:57:33.106Z,10.50
2022-12-02T19:00:01.290Z,10.50
2022-12-02T19:02:30.999Z,10.50
2022-12-02T19:04:59.487Z,10.50
2022-12-02T19:07:27.778Z,10.60
2022-12-02T19:09:56.165Z,10.60
2022-12-02T19:12:24.483Z,10.60
2022-12-02T19:14:53.264Z,10.60
2022-12-02T19:17:21.682Z,10.60
2022-12-02T19:19:51.389Z,10.60
2022-12-02T19:22:19.587Z,10.60
2022-12-02T19:24:47.903Z,10.50
2022-12-02T19:27:28.517Z,10.60
2022-12-02T19:30:04.964Z,10.50
2022-12-02T19:32:33.193Z,10.60
2022-12-02T19:35:02.850Z,10.50
2022-12-02T19:37:31.027Z,10.50
2022-12-02T19:39:59.274Z,10.50
2022-12-02T19:42:27.448Z,10.50
2022-12-02T19:44:55.791Z,10.50
2022-12-02T19:47:23.987Z,10.50
2022-12-02T19:49:52.286Z,10.60
2022-12-02T19:52:21.980Z,10.60
2022-12-02T19:54:51.844Z,10.60
2022-12-02T19:57:20.400Z,10.50
2022-12-02T19:59:48.616Z,10.50
2022-12-02T20:02:17.129Z,10.50
2022-12-02T20:04:45.387Z,10.50
2022-12-02T20:07:13.636Z,10.50
2022-12-02T20:09:43.348Z,10.50
2022-12-02T20:12:11.700Z,10.60
2022-12-02T20:14:40.030Z,10.60
2022-12-02T20:17:08.664Z,10.60
2022-12-02T20:19:36.891Z,10.60
2022-12-02T20:22:05.235Z,10.60
2022-12-02T20:24:33.611Z,10.60
2022-12-02T20:27:03.281Z,10.60
2022-12-02T20:29:31.633Z,10.60
2022-12-02T20:31:59.857Z,10.50
2022-12-02T20:34:33.008Z,10.50
2022-12-02T20:37:02.984Z,10.60
2022-12-02T20:39:31.240Z,10.80
2022-12-02T20:41:59.564Z,10.80
2022-12-02T20:44:29.399Z,10.90
2022-12-02T20:46:57.673Z,10.90
2022-12-02T20:49:25.934Z,10.80
2022-12-02T20:51:54.475Z,10.90
2022-12-02T20:54:22.862Z,11.00
2022-12-02T20:56:51.181Z,11.10
2022-12-02T20:59:19.764Z,11.20
2022-12-02T21:01:51.029Z,11.20
2022-12-02T21:04:19.509Z,11.30
2022-12-02T21:06:47.958Z,11.20
2022-12-02T21:09:16.802Z,11.20
2022-12-02T21:11:45.310Z,11.10
2022-12-02T21:14:17.317Z,11.20
2022-12-02T21:16:45.769Z,11.20
2022-12-02T21:19:15.375Z,11.00
2022-12-02T21:21:43.638Z,10.90
2022-12-02T21:24:11.836Z,10.90
2022-12-02T21:26:41.825Z,10.80
2022-12-02T21:29:10.268Z,10.80
2022-12-02T21:31:38.850Z,10.80
2022-12-02T21:34:07.983Z,10.80
2022-12-02T21:36:38.786Z,10.70
2022-12-02T21:39:07.058Z,10.70
2022-12-02T21:41:35.270Z,10.80
2022-12-02T21:44:03.520Z,10.70
2022-12-02T21:46:32.083Z,10.70
2022-12-02T21:49:00.491Z,10.70
2022-12-02T21:51:28.670Z,10.70
2022-12-02T21:53:58.287Z,10.70
2022-12-02T21:56:28.724Z,10.70
2022-12-02T21:59:00.220Z,10.70
2022-12-02T22:01:41.789Z,10.70
2022-12-02T22:04:12.835Z,10.70
2022-12-02T22:06:41.377Z,10.70
2022-12-02T22:09:11.124Z,10.70
2022-12-02T22:11:40.792Z,10.70
2022-12-02T22:14:09.081Z,10.70
2022-12-02T22:16:37.376Z,10.70
2022-12-02T22:19:08.018Z,10.70
2022-12-02T22:21:40.073Z,10.70
2022-12-02T22:24:10.397Z,10.70
2022-12-02T22:26:38.593Z,10.60
2022-12-02T22:29:06.793Z,10.70
2022-12-02T22:31:35.082Z,10.70
2022-12-02T22:34:03.327Z,10.70
2022-12-02T22:36:31.635Z,10.60
2022-12-02T22:38:59.813Z,10.70
2022-12-02T22:41:29.511Z,10.70
2022-12-02T22:43:57.712Z,10.60
2022-12-02T22:46:25.968Z,10.60
2022-12-02T22:48:54.312Z,10.60
2022-12-02T22:51:22.588Z,10.60
2022-12-02T22:53:50.816Z,10.60
2022-12-02T22:56:19.110Z,10.60
2022-12-02T22:58:48.650Z,10.60
2022-12-02T23:01:16.913Z,10.60
2022-12-02T23:03:45.135Z,10.60
2022-12-02T23:06:13.593Z,10.60
2022-12-02T23:08:41.850Z,10.60
2022-12-02T23:11:10.255Z,10.60
2022-12-02T23:13:38.431Z,10.60
2022-12-02T23:16:08.672Z,10.60
2022-12-02T23:18:37.125Z,10.60
2022-12-02T23:21:05.624Z,10.70
2022-12-02T23:23:33.791Z,10.60
2022-12-02T23:26:02.097Z,10.60
2022-12-02T23:28:30.322Z,10.60
2022-12-02T23:30:58.705Z,10.60
2022-12-02T23:33:28.375Z,10.60
2022-12-02T23:35:56.608Z,10.60
2022-12-02T23:38:24.913Z,10.60
2022-12-02T23:40:53.411Z,10.60
2022-12-02T23:43:21.641Z,10.60
2022-12-02T23:45:50.023Z,10.60
2022-12-02T23:48:18.192Z,10.60
2022-12-02T23:50:47.967Z,10.60
2022-12-02T23:53:16.289Z,10.60
2022-12-02T23:55:44.613Z,10.60
2022-12-02T23:58:12.862Z,10.60
